Time;durP1;ratioP1;P1;durP2;ratioP2;P2;SDS_P1;SDS_P2;PMS_P1;PMS_P2;Temp;Humidity;BMP_temperature;BMP_pressure;BME280_temperature;BME280_humidity;BME280_pressure;Samples;Min_cycle;Max_cycle;Signal;HPM_P1;HPM_P2
2021/04/03 00:00:14;;;;;;;;;;;;;;;5.03;82.73;100893.50;1866009;76;20150;-74
2021/04/03 00:02:42;;;;;;;;;;;;;;;5.01;82.54;100892.70;1866247;77;20260;-79
2021/04/03 00:05:11;;;;;;;;;;;;;;;4.97;82.33;100892.90;1868093;76;20154;-77
2021/04/03 00:07:39;;;;;;;;;;;;;;;4.93;82.30;100897.77;1867951;77;21218;-76
2021/04/03 00:10:13;;;;;;;;;;;;;;;4.88;82.21;100908.25;1867549;77;20304;-79
2021/04/03 00:12:41;;;;;;;;;;;;;;;4.87;81.93;100913.44;1868192;77;20110;-75
2021/04/03 00:15:12;;;;;;;;;;;;;;;4.83;81.79;100910.14;1867373;77;20272;-77
2021/04/03 00:17:40;;;;;;;;;;;;;;;4.80;81.54;100907.69;1866119;76;20567;-76
2021/04/03 00:20:10;;;;;;;;;;;;;;;4.79;81.48;100902.98;1866280;77;21141;-75
2021/04/03 00:22:38;;;;;;;;;;;;;;;4.76;81.45;100899.25;1866192;77;20201;-77
2021/04/03 00:25:08;;;;;;;;;;;;;;;4.75;81.43;100902.70;1866412;77;20285;-73
2021/04/03 00:27:36;;;;;;;;;;;;;;;4.72;81.55;100904.11;1867255;77;20213;-72
2021/04/03 00:30:20;;;;;;;;;;;;;;;4.69;81.65;100899.09;1866676;77;20106;-75
2021/04/03 00:32:52;;;;;;;;;;;;;;;4.67;81.77;100907.31;1867175;77;21198;-73
2021/04/03 00:35:24;;;;;;;;;;;;;;;4.66;81.74;100907.36;1867524;76;20177;-73
2021/04/03 00:37:52;;;;;;;;;;;;;;;4.64;81.81;100904.02;1867562;77;20249;-73
2021/04/03 00:40:31;;;;;;;;;;;;;;;4.62;81.80;100903.25;1867555;77;20559;-72
2021/04/03 00:42:58;;;;;;;;;;;;;;;4.59;81.91;100896.95;1867999;77;20174;-73
2021/04/03 00:45:26;;;;;;;;;;;;;;;4.57;81.95;100899.56;1868537;77;21331;-75
2021/04/03 00:47:54;;;;;;;;;;;;;;;4.54;82.04;100906.55;1867982;77;20209;-76
2021/04/03 00:50:25;;;;;;;;;;;;;;;4.51;82.11;100909.23;1856884;77;20218;-73
2021/04/03 00:52:53;;;;;;;;;;;;;;;4.49;82.21;100905.45;1841605;78;20202;-75
2021/04/03 00:55:22;;;;;;;;;;;;;;;4.49;82.19;100900.75;1841738;77;20197;-75
2021/04/03 00:57:50;;;;;;;;;;;;;;;4.50;82.21;100897.30;1841515;78;22118;-75
2021/04/03 01:00:21;;;;;;;;;;;;;;;4.53;82.09;100900.56;1841438;77;20221;-75
2021/04/03 01:02:48;;;;;;;;;;;;;;;4.57;81.89;100897.44;1841229;78;20229;-74
2021/04/03 01:05:19;;;;;;;;;;;;;;;4.59;81.73;100895.66;1842039;77;20989;-74
2021/04/03 01:07:48;;;;;;;;;;;;;;;4.57;81.62;100889.28;1849197;77;20225;-76
2021/04/03 01:10:20;;;;;;;;;;;;;;;4.57;81.67;100892.30;1842262;78;21376;-75
2021/04/03 01:13:04;;;;;;;;;;;;;;;4.56;81.68;100895.30;1843209;77;20205;-74
2021/04/03 01:16:09;;;;;;;;;;;;;;;4.55;81.71;100898.79;1842087;77;20547;-74
2021/04/03 01:18:56;;;;;;;;;;;;;;;4.50;81.83;100898.11;1840487;78;20229;-73
2021/04/03 01:21:45;;;;;;;;;;;;;;;4.46;82.02;100906.00;1840620;77;20107;-74
2021/04/03 01:24:50;;;;;;;;;;;;;;;4.43;82.14;100909.53;1840353;77;21137;-76
2021/04/03 01:27:30;;;;;;;;;;;;;;;4.47;82.21;100895.66;1922451;72;20202;-77
2021/04/03 01:30:04;;;;;;;;;;;;;;;4.46;82.14;100900.87;1891743;76;20167;-77
2021/04/03 01:33:01;;;;;;;;;;;;;;;4.48;82.08;100902.48;1889325;76;21367;-74
2021/04/03 01:35:34;;;;;;;;;;;;;;;4.52;82.09;100909.62;1891723;75;20202;-76
2021/04/03 01:38:08;;;;;;;;;;;;;;;4.57;81.86;100912.85;1891841;75;20226;-75
2021/04/03 01:40:38;;;;;;;;;;;;;;;4.57;81.90;100917.55;1892046;75;20589;-77
2021/04/03 01:43:13;;;;;;;;;;;;;;;4.55;81.91;100912.92;1891759;76;20502;-76
2021/04/03 01:45:41;;;;;;;;;;;;;;;4.53;81.77;100913.41;1890618;76;21644;-75
2021/04/03 01:48:11;;;;;;;;;;;;;;;4.49;81.78;100916.17;1891677;75;20144;-77
2021/04/03 01:50:39;;;;;;;;;;;;;;;4.47;81.84;100919.22;1891830;75;20208;-77
2021/04/03 01:53:08;;;;;;;;;;;;;;;4.44;81.85;100915.48;1892022;76;20298;-77
2021/04/03 01:55:37;;;;;;;;;;;;;;;4.44;81.92;100925.76;1891909;76;20214;-76
2021/04/03 01:58:05;;;;;;;;;;;;;;;4.41;81.97;100922.86;1891695;76;21181;-74
2021/04/03 02:00:34;;;;;;;;;;;;;;;4.41;82.00;100913.87;1891661;76;20124;-76
2021/04/03 02:03:03;;;;;;;;;;;;;;;4.42;81.97;100905.28;1891952;75;20140;-75
2021/04/03 02:05:33;;;;;;;;;;;;;;;4.45;81.91;100909.45;1891617;76;20219;-76
2021/04/03 02:08:03;;;;;;;;;;;;;;;4.49;81.80;100911.87;1886822;76;20215;-77
2021/04/03 02:10:33;;;;;;;;;;;;;;;4.53;81.60;100907.45;1891889;76;21455;-77
2021/04/03 02:13:04;;;;;;;;;;;;;;;4.54;81.44;100909.95;1891642;76;20124;-74
2021/04/03 02:15:33;;;;;;;;;;;;;;;4.54;81.35;100908.67;1891709;75;20136;-75
2021/04/03 02:18:04;;;;;;;;;;;;;;;4.56;81.33;100898.34;1891711;76;20147;-75
2021/04/03 02:20:33;;;;;;;;;;;;;;;4.57;81.32;100898.27;1890938;76;20163;-75
2021/04/03 02:23:01;;;;;;;;;;;;;;;4.55;81.41;100905.22;1891793;75;21177;-76
2021/04/03 02:25:29;;;;;;;;;;;;;;;4.53;81.49;100913.41;1892417;75;20498;-75
2021/04/03 02:27:57;;;;;;;;;;;;;;;4.52;81.63;100913.48;1908088;75;20163;-75
2021/04/03 02:30:27;;;;;;;;;;;;;;;4.54;81.81;100911.69;1908156;75;20577;-77
2021/04/03 02:32:56;;;;;;;;;;;;;;;4.58;81.96;100911.97;1908003;75;20143;-75
2021/04/03 02:35:26;;;;;;;;;;;;;;;4.59;82.01;100917.06;1908043;75;21350;-75
2021/04/03 02:37:59;;;;;;;;;;;;;;;4.61;82.08;100919.12;1907535;75;20120;-76
2021/04/03 02:40:29;;;;;;;;;;;;;;;4.64;82.19;100922.86;1907566;75;20155;-75
2021/04/03 02:43:24;;;;;;;;;;;;;;;4.66;82.32;100913.34;1907377;75;20179;-78
2021/04/03 02:45:58;;;;;;;;;;;;;;;4.66;82.24;100918.48;1907889;75;20469;-77
2021/04/03 02:48:29;;;;;;;;;;;;;;;4.65;82.26;100923.26;1907496;75;22374;-76
2021/04/03 02:50:59;;;;;;;;;;;;;;;4.64;82.43;100915.14;1907241;75;20155;-76
2021/04/03 02:53:30;;;;;;;;;;;;;;;4.65;82.58;100921.97;1907587;75;20190;-76
2021/04/03 02:56:01;;;;;;;;;;;;;;;4.63;82.90;100921.61;1907507;75;20504;-75
2021/04/03 02:58:35;;;;;;;;;;;;;;;4.60;83.31;100926.43;1907457;75;20143;-77
2021/04/03 03:01:03;;;;;;;;;;;;;;;4.58;83.74;100924.81;1907554;75;22595;-74
2021/04/03 03:03:33;;;;;;;;;;;;;;;4.58;84.01;100928.67;1907447;75;20123;-75
2021/04/03 03:06:02;;;;;;;;;;;;;;;4.57;84.26;100932.13;1907478;75;20156;-76
2021/04/03 03:08:30;;;;;;;;;;;;;;;4.57;84.38;100932.13;1907486;75;20246;-77
2021/04/03 03:10:59;;;;;;;;;;;;;;;4.55;84.54;100934.77;1907391;75;20202;-75
2021/04/03 03:13:27;;;;;;;;;;;;;;;4.55;84.79;100942.48;1907666;75;22272;-77
2021/04/03 03:16:02;;;;;;;;;;;;;;;4.55;84.96;100936.05;1907368;75;20186;-74
2021/04/03 03:18:30;;;;;;;;;;;;;;;4.56;85.07;100933.05;1877659;75;20186;-78
2021/04/03 03:20:57;;;;;;;;;;;;;;;4.56;85.13;100922.29;1877796;75;20182;-76
2021/04/03 03:23:27;;;;;;;;;;;;;;;4.54;85.30;100909.95;1907476;75;20135;-79
2021/04/03 03:25:57;;;;;;;;;;;;;;;4.53;85.56;100901.84;1908093;75;21188;-77
2021/04/03 03:28:30;;;;;;;;;;;;;;;4.54;85.71;100893.25;1909072;75;20142;-79
2021/04/03 03:30:58;;;;;;;;;;;;;;;4.57;85.64;100903.86;1909465;75;20233;-76
2021/04/03 03:33:27;;;;;;;;;;;;;;;4.57;85.61;100911.13;1907865;75;20704;-80
2021/04/03 03:35:57;;;;;;;;;;;;;;;4.59;85.33;100913.21;1907783;75;20103;-77
2021/04/03 03:38:25;;;;;;;;;;;;;;;4.62;85.15;100899.40;1907762;75;22086;-76
2021/04/03 03:40:54;;;;;;;;;;;;;;;4.65;84.73;100890.28;1907473;75;20155;-80
2021/04/03 03:43:24;;;;;;;;;;;;;;;4.67;84.58;100892.34;1907359;75;20135;-78
2021/04/03 03:45:52;;;;;;;;;;;;;;;4.67;84.51;100887.20;1907657;75;20497;-78
2021/04/03 03:48:20;;;;;;;;;;;;;;;4.66;84.46;100890.21;1907592;75;20512;-77
2021/04/03 03:50:48;;;;;;;;;;;;;;;4.64;84.14;100893.30;1907594;75;21183;-81
2021/04/03 03:53:18;;;;;;;;;;;;;;;4.61;84.13;100897.72;1907195;75;20858;-77
2021/04/03 03:55:47;;;;;;;;;;;;;;;4.59;84.13;100895.66;1907536;75;20607;-74
2021/04/03 03:58:18;;;;;;;;;;;;;;;4.57;84.08;100900.00;1907079;75;20207;-77
2021/04/03 04:00:48;;;;;;;;;;;;;;;4.56;84.12;100905.58;1907100;75;20170;-77
2021/04/03 04:03:17;;;;;;;;;;;;;;;4.55;84.16;100905.22;1907676;75;21236;-77
2021/04/03 04:05:46;;;;;;;;;;;;;;;4.55;84.03;100906.50;1906770;75;20252;-77
2021/04/03 04:08:18;;;;;;;;;;;;;;;4.54;83.98;100901.41;1907444;75;20206;-77
2021/04/03 04:10:46;;;;;;;;;;;;;;;4.56;83.86;100904.30;1907258;75;20246;-76
2021/04/03 04:13:16;;;;;;;;;;;;;;;4.57;83.79;100901.28;1907564;75;20127;-76
2021/04/03 04:15:45;;;;;;;;;;;;;;;4.61;83.65;100901.56;1907543;75;21128;-77
2021/04/03 04:18:13;;;;;;;;;;;;;;;4.64;83.43;100899.73;1877240;75;20496;-77
2021/04/03 04:20:41;;;;;;;;;;;;;;;4.65;83.30;100896.71;1907636;75;20223;-76
2021/04/03 04:23:11;;;;;;;;;;;;;;;4.64;83.24;100897.16;1906926;75;20254;-78
2021/04/03 04:25:40;;;;;;;;;;;;;;;4.63;83.20;100903.18;1907229;75;20135;-77
2021/04/03 04:28:09;;;;;;;;;;;;;;;4.66;83.23;100915.08;1879987;75;21296;-77
2021/04/03 04:30:37;;;;;;;;;;;;;;;4.71;83.18;100926.04;1910439;75;20151;-77
2021/04/03 04:33:09;;;;;;;;;;;;;;;4.78;82.96;100924.92;1910656;75;20127;-77
2021/04/03 04:35:37;;;;;;;;;;;;;;;4.82;82.63;100935.45;1910551;75;20202;-79
2021/04/03 04:38:08;;;;;;;;;;;;;;;4.84;82.53;100934.97;1910152;75;20544;-77
2021/04/03 04:40:37;;;;;;;;;;;;;;;4.86;82.43;100940.03;1910080;75;21370;-76
2021/04/03 04:43:05;;;;;;;;;;;;;;;4.88;82.70;100931.39;1911995;75;20120;-76
2021/04/03 04:45:35;;;;;;;;;;;;;;;4.89;82.54;100939.47;1911633;75;20107;-77
2021/04/03 04:48:03;;;;;;;;;;;;;;;4.89;82.82;100946.34;1910884;75;20210;-77
2021/04/03 04:50:31;;;;;;;;;;;;;;;4.89;83.13;100945.90;1910481;75;20143;-76
2021/04/03 04:53:01;;;;;;;;;;;;;;;4.92;83.31;100948.80;1910524;75;21182;-77
2021/04/03 04:55:33;;;;;;;;;;;;;;;4.96;83.31;100948.63;1910688;75;20123;-76
2021/04/03 04:58:01;;;;;;;;;;;;;;;5.07;83.04;100942.64;1880461;75;20159;-79
2021/04/03 05:00:30;;;;;;;;;;;;;;;5.19;82.83;100943.89;1910694;75;20150;-77
2021/04/03 05:02:59;;;;;;;;;;;;;;;5.31;82.40;100948.10;1908641;75;20238;-77
2021/04/03 05:05:27;;;;;;;;;;;;;;;5.44;82.10;100951.46;1910742;75;22180;-76
2021/04/03 05:07:54;;;;;;;;;;;;;;;5.56;81.44;100953.09;1910436;75;20258;-77
2021/04/03 05:10:24;;;;;;;;;;;;;;;5.69;81.16;100954.71;1910740;75;20152;-76
2021/04/03 05:12:51;;;;;;;;;;;;;;;5.83;80.68;100962.72;1910561;75;20509;-76
2021/04/03 05:15:19;;;;;;;;;;;;;;;5.93;80.33;100971.77;1910716;75;20212;-77
2021/04/03 05:17:47;;;;;;;;;;;;;;;6.03;79.18;100977.38;1910564;75;22114;-77
2021/04/03 05:20:14;;;;;;;;;;;;;;;6.11;78.76;100977.42;1910572;75;20131;-78
2021/04/03 05:22:42;;;;;;;;;;;;;;;6.19;78.58;100980.97;1910649;75;20238;-77
2021/04/03 05:25:12;;;;;;;;;;;;;;;6.23;78.30;100975.61;1910643;75;20119;-77
2021/04/03 05:27:40;;;;;;;;;;;;;;;6.30;78.38;100972.31;1899326;75;20391;-77
2021/04/03 05:30:09;;;;;;;;;;;;;;;6.38;78.47;100978.80;1890941;75;22088;-77
2021/04/03 05:32:37;;;;;;;;;;;;;;;6.51;78.39;100986.83;1890999;76;20230;-77
2021/04/03 05:35:06;;;;;;;;;;;;;;;6.62;78.19;100994.11;1891169;75;20105;-77
2021/04/03 05:37:34;;;;;;;;;;;;;;;6.71;77.64;100994.98;1891216;76;20294;-77
2021/04/03 05:40:03;;;;;;;;;;;;;;;6.77;76.97;100990.38;1891324;76;20223;-78
2021/04/03 05:42:33;;;;;;;;;;;;;;;6.84;76.10;100996.95;1891212;76;21631;-77
2021/04/03 05:45:03;;;;;;;;;;;;;;;6.90;75.70;100999.69;1891150;75;20211;-77
2021/04/03 05:47:35;;;;;;;;;;;;;;;6.98;75.33;101005.80;1893814;76;20136;-78
2021/04/03 05:50:04;;;;;;;;;;;;;;;7.01;74.61;101009.09;1892931;76;20129;-77
2021/04/03 05:52:33;;;;;;;;;;;;;;;7.07;74.68;101011.83;1891372;76;20231;-77
2021/04/03 05:55:03;;;;;;;;;;;;;;;7.06;74.40;101003.70;1891150;75;21255;-77
2021/04/03 05:57:31;;;;;;;;;;;;;;;7.09;74.70;101003.55;1891000;75;20489;-77
2021/04/03 05:59:58;;;;;;;;;;;;;;;7.15;74.86;100992.94;1891180;76;20235;-77
2021/04/03 06:02:26;;;;;;;;;;;;;;;7.24;74.99;100999.80;1890865;76;20207;-77
2021/04/03 06:04:54;;;;;;;;;;;;;;;7.35;74.56;101003.19;1891151;75;20144;-77
2021/04/03 06:07:23;;;;;;;;;;;;;;;7.41;74.11;101005.02;1891044;76;21187;-77
2021/04/03 06:09:50;;;;;;;;;;;;;;;7.45;73.76;100999.27;1891033;76;20552;-77
2021/04/03 06:12:22;;;;;;;;;;;;;;;7.53;73.51;100997.61;1891126;75;20509;-77
2021/04/03 06:14:51;;;;;;;;;;;;;;;7.66;73.36;100994.34;1865407;76;20485;-77
2021/04/03 06:17:19;;;;;;;;;;;;;;;7.75;72.76;100992.63;1891376;76;20120;-78
2021/04/03 06:19:48;;;;;;;;;;;;;;;7.82;71.99;100991.39;1857722;76;21645;-77
2021/04/03 06:22:16;;;;;;;;;;;;;;;7.91;72.00;100998.69;1891627;76;20484;-77
2021/04/03 06:24:44;;;;;;;;;;;;;;;8.01;71.89;101002.94;1891287;76;20741;-77
2021/04/03 06:27:14;;;;;;;;;;;;;;;8.09;71.22;101009.87;1894768;75;20221;-78
2021/04/03 06:29:50;;;;;;;;;;;;;;;8.15;70.80;101005.68;1906114;75;20246;-77
2021/04/03 06:32:29;;;;;;;;;;;;;;;8.29;70.79;101002.44;1907701;75;21245;-76
2021/04/03 06:34:56;;;;;;;;;;;;;;;8.45;70.50;101001.58;1907688;75;20131;-77
2021/04/03 06:37:28;;;;;;;;;;;;;;;8.52;69.69;101007.23;1907638;75;20215;-77
2021/04/03 06:40:08;;;;;;;;;;;;;;;8.59;68.93;101013.77;1907692;75;20213;-78
2021/04/03 06:42:52;;;;;;;;;;;;;;;8.71;68.56;101013.13;1907667;75;20219;-77
2021/04/03 06:45:33;;;;;;;;;;;;;;;8.72;68.01;101020.43;1907582;75;21174;-78
2021/04/03 06:48:09;;;;;;;;;;;;;;;8.65;67.89;101025.09;1907309;75;20214;-77
2021/04/03 06:50:44;;;;;;;;;;;;;;;8.72;68.01;101032.91;1907580;75;20580;-78
2021/04/03 06:53:13;;;;;;;;;;;;;;;8.83;67.43;101044.84;1907273;75;20623;-77
2021/04/03 06:55:42;;;;;;;;;;;;;;;8.88;67.09;101044.13;1907668;75;20579;-78
2021/04/03 06:58:11;;;;;;;;;;;;;;;8.96;66.41;101049.75;1907685;75;22103;-77
2021/04/03 07:00:41;;;;;;;;;;;;;;;9.00;66.08;101040.05;1907817;75;20123;-77
2021/04/03 07:03:14;;;;;;;;;;;;;;;9.10;66.19;101028.28;1907836;75;20218;-78
2021/04/03 07:05:42;;;;;;;;;;;;;;;9.22;66.13;101022.92;1910168;75;20633;-78
2021/04/03 07:08:10;;;;;;;;;;;;;;;9.34;66.05;101017.06;1911172;75;20182;-78
2021/04/03 07:10:39;;;;;;;;;;;;;;;9.50;65.68;101023.06;1911166;75;21594;-79
2021/04/03 07:13:10;;;;;;;;;;;;;;;9.57;65.25;101018.73;1911286;75;20521;-79
2021/04/03 07:15:37;;;;;;;;;;;;;;;9.58;65.23;101026.05;1907678;75;20373;-78
2021/04/03 07:18:09;;;;;;;;;;;;;;;9.58;64.39;101019.57;1907580;75;20278;-79
2021/04/03 07:20:37;;;;;;;;;;;;;;;9.62;64.42;101018.94;1907491;75;20174;-79
2021/04/03 07:23:09;;;;;;;;;;;;;;;9.73;64.68;101018.70;1907700;75;21178;-79
2021/04/03 07:25:38;;;;;;;;;;;;;;;9.80;63.82;101024.37;1907472;75;20139;-79
2021/04/03 07:28:07;;;;;;;;;;;;;;;9.87;64.05;101030.88;1900131;75;20488;-78
2021/04/03 07:30:38;;;;;;;;;;;;;;;9.91;64.23;101036.27;1891092;76;20226;-78
2021/04/03 07:33:11;;;;;;;;;;;;;;;9.90;63.55;101033.30;1890927;76;20218;-78
2021/04/03 07:35:41;;;;;;;;;;;;;;;9.81;63.24;101023.00;1891265;76;22106;-79
2021/04/03 07:38:11;;;;;;;;;;;;;;;9.79;63.60;101025.31;1891086;76;20243;-79
2021/04/03 07:40:45;;;;;;;;;;;;;;;9.81;63.67;101022.16;1891278;76;20136;-78
2021/04/03 07:43:36;;;;;;;;;;;;;;;9.87;63.47;101015.33;1890375;76;20128;-79
2021/04/03 07:46:26;;;;;;;;;;;;;;;9.89;63.07;101019.98;1891295;76;20152;-79
2021/04/03 07:48:59;;;;;;;;;;;;;;;9.90;63.09;101028.95;1891309;76;20148;-79
2021/04/03 07:51:33;;;;;;;;;;;;;;;9.87;63.16;101036.91;1891308;76;20191;-78
2021/04/03 07:54:02;;;;;;;;;;;;;;;9.91;63.37;101041.45;1891316;76;20216;-78
2021/04/03 07:56:51;;;;;;;;;;;;;;;9.96;63.10;101043.31;1891350;76;20121;-78
2021/04/03 07:59:39;;;;;;;;;;;;;;;10.04;62.91;101043.72;1891261;76;20156;-77
2021/04/03 08:02:22;;;;;;;;;;;;;;;10.14;62.63;101051.84;1876719;76;21172;-77
2021/04/03 08:04:51;;;;;;;;;;;;;;;10.23;62.00;101056.03;1891320;76;20203;-77
2021/04/03 08:07:21;;;;;;;;;;;;;;;10.33;61.43;101054.58;1891348;76;20294;-78
2021/04/03 08:09:48;;;;;;;;;;;;;;;10.40;61.38;101054.56;1891167;76;20171;-78
2021/04/03 08:12:16;;;;;;;;;;;;;;;10.46;60.91;101063.31;1891231;76;20561;-78
2021/04/03 08:14:44;;;;;;;;;;;;;;;10.43;60.91;101064.76;1891130;76;21180;-78
2021/04/03 08:17:20;;;;;;;;;;;;;;;10.47;60.93;101058.92;1857397;76;20183;-77
2021/04/03 08:19:49;;;;;;;;;;;;;;;10.51;60.71;101072.09;1891122;76;20159;-77
2021/04/03 08:22:18;;;;;;;;;;;;;;;10.50;60.54;101075.16;1891151;76;20266;-77
2021/04/03 08:24:56;;;;;;;;;;;;;;;10.51;60.50;101075.99;1891341;76;20123;-77
2021/04/03 08:27:33;;;;;;;;;;;;;;;10.54;60.78;101075.35;1891171;74;21176;-77
2021/04/03 08:30:20;;;;;;;;;;;;;;;10.44;60.99;101073.38;1904786;75;20380;-78
2021/04/03 08:32:32;;;;;;;;;;;;;;;10.33;61.61;101067.55;1900432;75;20124;-78
2021/04/03 08:34:59;;;;;;;;;;;;;;;10.37;61.75;101066.42;1904670;75;20143;-78
2021/04/03 08:37:27;;;;;;;;;;;;;;;10.40;61.74;101067.53;1904833;75;20210;-78
2021/04/03 08:39:55;;;;;;;;;;;;;;;10.39;61.61;101055.51;1904578;75;21183;-78
2021/04/03 08:42:22;;;;;;;;;;;;;;;10.41;61.32;101058.83;1904535;75;20430;-78
2021/04/03 08:44:50;;;;;;;;;;;;;;;10.49;61.26;101068.77;1904945;75;20658;-78
2021/04/03 08:47:19;;;;;;;;;;;;;;;10.55;60.97;101050.24;1904759;75;20111;-78
2021/04/03 08:49:46;;;;;;;;;;;;;;;10.73;60.94;101051.72;1904715;75;20219;-79
2021/04/03 08:52:14;;;;;;;;;;;;;;;10.92;60.90;101054.03;1904449;75;21176;-78
2021/04/03 08:54:44;;;;;;;;;;;;;;;11.11;60.61;101048.08;1904661;75;20183;-78
2021/04/03 08:57:25;;;;;;;;;;;;;;;11.36;60.55;101048.70;1904725;75;20128;-78
2021/04/03 08:59:54;;;;;;;;;;;;;;;11.55;59.15;101050.50;1904622;75;20742;-78
2021/04/03 09:02:23;;;;;;;;;;;;;;;11.64;58.14;101049.91;1904743;75;20203;-78
2021/04/03 09:04:51;;;;;;;;;;;;;;;11.73;57.23;101058.45;1904612;75;21179;-78
2021/04/03 09:07:34;;;;;;;;;;;;;;;11.79;56.90;101057.20;1904370;75;20238;-78
2021/04/03 09:10:10;;;;;;;;;;;;;;;11.83;56.04;101056.09;1904492;75;20132;-79
2021/04/03 09:12:38;;;;;;;;;;;;;;;11.87;55.54;101054.47;1904365;75;20333;-78
2021/04/03 09:15:08;;;;;;;;;;;;;;;11.85;55.14;101064.15;1904462;75;20234;-79
2021/04/03 09:17:50;;;;;;;;;;;;;;;11.97;55.17;101056.84;1904444;75;22095;-79
2021/04/03 09:20:24;;;;;;;;;;;;;;;12.29;54.87;101055.17;1904458;75;20487;-79
2021/04/03 09:22:54;;;;;;;;;;;;;;;12.56;53.69;101041.16;1904814;75;20461;-78
2021/04/03 09:25:22;;;;;;;;;;;;;;;12.70;54.09;101034.98;1904861;75;20562;-80
2021/04/03 09:28:00;;;;;;;;;;;;;;;12.82;54.24;101030.72;1904879;75;20212;-79
2021/04/03 09:30:37;;;;;;;;;;;;;;;12.87;53.57;101030.75;1904729;75;22234;-79
2021/04/03 09:33:16;;;;;;;;;;;;;;;12.78;53.01;101033.16;1904589;75;20635;-79
2021/04/03 09:35:43;;;;;;;;;;;;;;;12.77;53.12;101036.23;1904343;75;20596;-78
2021/04/03 09:38:11;;;;;;;;;;;;;;;12.91;52.98;101037.89;1904487;75;20199;-78
2021/04/03 09:40:44;;;;;;;;;;;;;;;13.05;52.93;101041.67;1904598;75;20285;-80
2021/04/03 09:43:14;;;;;;;;;;;;;;;13.28;53.33;101042.20;1904709;75;21164;-80
2021/04/03 09:45:44;;;;;;;;;;;;;;;13.40;51.94;101047.83;1904301;75;20104;-79
2021/04/03 09:48:11;;;;;;;;;;;;;;;13.39;51.89;101040.98;1905319;75;20217;-77
2021/04/03 09:50:40;;;;;;;;;;;;;;;13.65;51.71;101045.16;1904958;75;20151;-78
2021/04/03 09:53:12;;;;;;;;;;;;;;;13.82;51.34;101045.20;1904699;75;20298;-77
2021/04/03 09:55:40;;;;;;;;;;;;;;;13.83;51.65;101042.96;1904760;75;21173;-78
2021/04/03 09:58:08;;;;;;;;;;;;;;;13.78;51.23;101043.78;1905119;75;20587;-79
2021/04/03 10:00:36;;;;;;;;;;;;;;;13.54;50.93;101042.47;1904788;75;20229;-77
2021/04/03 10:03:04;;;;;;;;;;;;;;;13.29;50.93;101043.87;1904743;75;20219;-77
2021/04/03 10:05:32;;;;;;;;;;;;;;;13.36;51.95;101044.27;1904655;75;20513;-78
2021/04/03 10:08:00;;;;;;;;;;;;;;;13.76;51.38;101039.13;1904978;75;21178;-81
2021/04/03 10:10:29;;;;;;;;;;;;;;;14.56;49.93;101027.02;1904862;75;20238;-78
2021/04/03 10:12:57;;;;;;;;;;;;;;;15.65;46.85;101030.95;1904418;75;20202;-77
2021/04/03 10:15:26;;;;;;;;;;;;;;;16.53;45.10;101023.55;1904822;75;20131;-77
2021/04/03 10:17:54;;;;;;;;;;;;;;;17.36;43.16;101025.44;1904814;75;20226;-78
2021/04/03 10:20:22;;;;;;;;;;;;;;;17.66;41.38;101035.52;1904940;75;21346;-76
2021/04/03 10:22:49;;;;;;;;;;;;;;;17.50;41.53;101038.66;1904982;75;20494;-76
2021/04/03 10:25:17;;;;;;;;;;;;;;;17.21;41.37;101036.45;1904969;75;20186;-77
2021/04/03 10:27:45;;;;;;;;;;;;;;;17.10;41.01;101045.75;1904964;75;20282;-79
2021/04/03 10:30:13;;;;;;;;;;;;;;;16.79;40.96;101047.56;1892694;75;20239;-78
2021/04/03 10:32:42;;;;;;;;;;;;;;;16.48;41.00;101049.31;1891744;76;21182;-80
2021/04/03 10:35:10;;;;;;;;;;;;;;;16.49;41.10;101047.05;1891379;76;20502;-79
2021/04/03 10:37:39;;;;;;;;;;;;;;;16.56;41.41;101044.78;1891750;76;20270;-74
2021/04/03 10:40:07;;;;;;;;;;;;;;;16.38;40.52;101037.95;1891175;76;20155;-77
2021/04/03 10:42:35;;;;;;;;;;;;;;;16.17;41.77;101037.14;1891293;76;20482;-81
2021/04/03 10:45:03;;;;;;;;;;;;;;;16.25;40.13;101030.29;1891507;76;21181;-82
2021/04/03 10:47:31;;;;;;;;;;;;;;;15.94;40.65;101029.87;1891572;76;20469;-79
2021/04/03 10:49:59;;;;;;;;;;;;;;;15.76;41.15;101021.73;1892133;76;20171;-81
2021/04/03 10:52:26;;;;;;;;;;;;;;;15.59;42.43;101025.38;1891555;75;20286;-74
2021/04/03 10:54:54;;;;;;;;;;;;;;;15.49;42.38;101018.76;1891596;76;20215;-78
2021/04/03 10:57:23;;;;;;;;;;;;;;;15.82;42.02;101014.71;1891290;76;21177;-80
2021/04/03 10:59:51;;;;;;;;;;;;;;;16.12;41.49;101013.11;1891489;76;20653;-77
2021/04/03 11:02:20;;;;;;;;;;;;;;;17.08;39.94;100999.98;1891829;76;20135;-80
2021/04/03 11:04:47;;;;;;;;;;;;;;;18.39;38.18;100988.91;1890991;76;20242;-77
2021/04/03 11:07:15;;;;;;;;;;;;;;;19.81;36.06;100985.61;1891395;76;20152;-78
2021/04/03 11:09:42;;;;;;;;;;;;;;;20.96;34.45;100982.95;1891827;76;20487;-77
2021/04/03 11:12:11;;;;;;;;;;;;;;;21.76;32.40;100967.44;1891343;76;20104;-77
2021/04/03 11:14:43;;;;;;;;;;;;;;;22.05;30.38;100970.38;1891287;76;20553;-76
2021/04/03 11:17:11;;;;;;;;;;;;;;;22.25;29.18;100967.71;1891041;76;20782;-76
2021/04/03 11:19:41;;;;;;;;;;;;;;;22.09;27.31;100965.92;1891123;76;20227;-77
2021/04/03 11:22:09;;;;;;;;;;;;;;;21.92;26.92;100959.53;1891132;76;21358;-77
2021/04/03 11:24:37;;;;;;;;;;;;;;;22.20;26.64;100950.22;1891466;76;20128;-77
2021/04/03 11:27:05;;;;;;;;;;;;;;;22.04;26.75;100948.44;1891309;76;20120;-76
2021/04/03 11:29:35;;;;;;;;;;;;;;;22.13;26.10;100949.23;1886342;75;20251;-76
2021/04/03 11:32:05;;;;;;;;;;;;;;;22.03;26.80;100950.75;1891042;76;20493;-75
2021/04/03 11:34:32;;;;;;;;;;;;;;;22.13;26.99;100952.71;1891292;76;21183;-78
2021/04/03 11:37:00;;;;;;;;;;;;;;;22.49;26.45;100946.98;1891194;76;20148;-78
2021/04/03 11:39:28;;;;;;;;;;;;;;;22.70;26.22;100951.71;1891295;76;20291;-75
2021/04/03 11:41:56;;;;;;;;;;;;;;;22.99;25.64;100943.95;1891199;76;20223;-74
2021/04/03 11:44:25;;;;;;;;;;;;;;;22.46;25.07;100932.27;1891117;76;20513;-76
2021/04/03 11:46:53;;;;;;;;;;;;;;;21.70;26.09;100938.52;1891186;75;21238;-77
2021/04/03 11:49:21;;;;;;;;;;;;;;;21.68;26.71;100941.00;1891192;75;20216;-80
2021/04/03 11:51:49;;;;;;;;;;;;;;;22.03;26.58;100948.10;1891192;76;20175;-78
2021/04/03 11:54:17;;;;;;;;;;;;;;;22.25;25.35;100955.81;1891763;76;20124;-78
2021/04/03 11:56:45;;;;;;;;;;;;;;;21.68;24.41;100965.61;1891859;75;20695;-78
2021/04/03 11:59:15;;;;;;;;;;;;;;;20.46;26.18;100967.09;1891535;76;20469;-76
2021/04/03 12:01:43;;;;;;;;;;;;;;;19.81;27.19;100957.12;1891072;76;20128;-77
2021/04/03 12:04:11;;;;;;;;;;;;;;;19.39;28.18;100952.47;1891469;76;20224;-76
2021/04/03 12:06:39;;;;;;;;;;;;;;;18.95;28.95;100948.87;1891156;75;20543;-76
2021/04/03 12:09:07;;;;;;;;;;;;;;;18.74;29.61;100950.95;1891322;76;20144;-77
2021/04/03 12:11:37;;;;;;;;;;;;;;;18.83;29.66;100943.49;1891094;76;20183;-77
2021/04/03 12:14:04;;;;;;;;;;;;;;;19.04;29.96;100934.03;1891715;76;20207;-76
2021/04/03 12:16:33;;;;;;;;;;;;;;;19.20;30.60;100938.63;1891697;76;20211;-77
2021/04/03 12:19:01;;;;;;;;;;;;;;;19.29;30.95;100936.41;1892072;76;20637;-75
2021/04/03 12:21:29;;;;;;;;;;;;;;;19.08;31.48;100931.94;1892069;76;20195;-76
2021/04/03 12:23:57;;;;;;;;;;;;;;;18.94;32.48;100920.11;1891597;76;21186;-77
2021/04/03 12:26:24;;;;;;;;;;;;;;;18.72;32.44;100918.73;1892532;76;20281;-77
2021/04/03 12:28:53;;;;;;;;;;;;;;;18.36;32.54;100919.56;1891987;75;20140;-77
2021/04/03 12:31:21;;;;;;;;;;;;;;;18.11;33.63;100916.27;1891615;76;20144;-76
2021/04/03 12:33:49;;;;;;;;;;;;;;;18.10;33.90;100915.92;1891573;76;20247;-80
2021/04/03 12:36:18;;;;;;;;;;;;;;;17.85;33.79;100909.02;1891286;76;20218;-76
2021/04/03 12:38:47;;;;;;;;;;;;;;;17.25;35.05;100915.89;1891160;76;20195;-74
2021/04/03 12:41:15;;;;;;;;;;;;;;;16.80;36.00;100903.28;1891406;76;20148;-76
2021/04/03 12:43:44;;;;;;;;;;;;;;;16.41;36.98;100901.48;1891616;76;20305;-75
2021/04/03 12:46:12;;;;;;;;;;;;;;;16.07;37.24;100904.03;1891896;76;20250;-79
2021/04/03 12:48:40;;;;;;;;;;;;;;;15.77;37.82;100904.34;1891585;75;21176;-74
2021/04/03 12:51:07;;;;;;;;;;;;;;;15.42;39.33;100902.95;1890922;76;20167;-77
2021/04/03 12:53:35;;;;;;;;;;;;;;;15.30;40.02;100900.41;1891185;76;20163;-76
2021/04/03 12:56:04;;;;;;;;;;;;;;;15.26;40.15;100900.77;1891484;76;20275;-78
2021/04/03 12:58:32;;;;;;;;;;;;;;;15.16;39.99;100896.77;1891368;76;20318;-75